Time;durP1;ratioP1;P1;durP2;ratioP2;P2;SDS_P1;SDS_P2;PMS_P1;PMS_P2;Temp;Humidity;BMP_temperature;BMP_pressure;BME280_temperature;BME280_humidity;BME280_pressure;Samples;Min_cycle;Max_cycle;Signal;HPM_P1;HPM_P2
2023/04/01 00:01:13;;;;;;;3.10;2.40;;;;;;;;;;4962908;28;20599;-71
2023/04/01 00:03:39;;;;;;;3.90;2.40;;;;;;;;;;4959857;28;20191;-71
2023/04/01 00:06:04;;;;;;;3.50;2.87;;;;;;;;;;4959045;28;20946;-71
2023/04/01 00:08:30;;;;;;;2.97;2.63;;;;;;;;;;4959542;28;20264;-71
2023/04/01 00:10:56;;;;;;;4.00;2.53;;;;;;;;;;4962000;28;20198;-71
2023/04/01 00:13:22;;;;;;;3.87;3.00;;;;;;;;;;4961709;28;20285;-71
2023/04/01 00:15:48;;;;;;;4.07;3.20;;;;;;;;;;4958436;28;20545;-71
2023/04/01 00:18:13;;;;;;;3.60;3.13;;;;;;;;;;4961320;28;20182;-72
2023/04/01 00:20:42;;;;;;;5.00;3.23;;;;;;;;;;4955315;28;20214;-72
2023/04/01 00:23:07;;;;;;;3.50;3.20;;;;;;;;;;4958468;28;20186;-72
2023/04/01 00:25:32;;;;;;;3.93;2.90;;;;;;;;;;4962608;28;20460;-72
2023/04/01 00:27:58;;;;;;;3.80;3.10;;;;;;;;;;4959390;28;20244;-72
2023/04/01 00:30:23;;;;;;;3.40;3.10;;;;;;;;;;4958825;28;20686;-72
2023/04/01 00:32:51;;;;;;;3.07;2.73;;;;;;;;;;4963952;28;20193;-71
2023/04/01 00:35:16;;;;;;;3.43;3.00;;;;;;;;;;4963792;28;20725;-71
2023/04/01 00:37:42;;;;;;;3.57;2.93;;;;;;;;;;4966751;28;20509;-72
2023/04/01 00:40:08;;;;;;;3.30;3.00;;;;;;;;;;4964703;28;20199;-71
2023/04/01 00:42:33;;;;;;;3.40;2.87;;;;;;;;;;4966244;28;20179;-72
2023/04/01 00:44:58;;;;;;;6.87;3.40;;;;;;;;;;4963844;28;20460;-71
2023/04/01 00:47:25;;;;;;;3.60;3.20;;;;;;;;;;4965136;28;20279;-71
2023/04/01 00:49:51;;;;;;;3.53;3.23;;;;;;;;;;4965769;28;20219;-71
2023/04/01 00:52:20;;;;;;;4.30;3.63;;;;;;;;;;4963717;28;20433;-72
2023/04/01 00:54:47;;;;;;;3.50;3.10;;;;;;;;;;4963800;28;20843;-71
2023/04/01 00:57:15;;;;;;;3.97;3.20;;;;;;;;;;4967473;28;20479;-72
2023/04/01 00:59:44;;;;;;;4.20;3.80;;;;;;;;;;4964600;28;20922;-71
2023/04/01 01:02:11;;;;;;;5.10;3.43;;;;;;;;;;4964277;28;20515;-72
2023/04/01 01:04:36;;;;;;;5.13;2.90;;;;;;;;;;4962722;28;20799;-71
2023/04/01 01:07:20;;;;;;;4.00;3.60;;;;;;;;;;4964370;28;20423;-71
2023/04/01 01:10:18;;;;;;;3.83;3.40;;;;;;;;;;4968309;28;20209;-72
2023/04/01 01:13:09;;;;;;;3.53;3.20;;;;;;;;;;4981939;28;20470;-72
2023/04/01 01:15:40;;;;;;;3.70;3.40;;;;;;;;;;4961478;28;20476;-72
2023/04/01 01:18:19;;;;;;;4.30;3.30;;;;;;;;;;4964520;28;20430;-72
2023/04/01 01:20:57;;;;;;;7.10;3.37;;;;;;;;;;4964911;28;20461;-72
2023/04/01 01:23:23;;;;;;;4.43;4.00;;;;;;;;;;4956809;28;20465;-72
2023/04/01 01:26:05;;;;;;;3.60;3.30;;;;;;;;;;4958915;28;20465;-71
2023/04/01 01:28:31;;;;;;;4.10;3.40;;;;;;;;;;4959218;28;20178;-72
2023/04/01 01:30:56;;;;;;;4.90;3.60;;;;;;;;;;4960774;28;20453;-72
2023/04/01 01:33:34;;;;;;;3.97;3.60;;;;;;;;;;4964701;28;20479;-72
2023/04/01 01:36:02;;;;;;;4.00;3.67;;;;;;;;;;4961171;28;20213;-72
2023/04/01 01:38:30;;;;;;;4.50;4.10;;;;;;;;;;4957726;28;20452;-71
2023/04/01 01:40:57;;;;;;;4.63;4.23;;;;;;;;;;4956920;28;20534;-71
2023/04/01 01:43:25;;;;;;;4.40;4.00;;;;;;;;;;4961128;28;20491;-71
2023/04/01 01:45:52;;;;;;;6.23;4.63;;;;;;;;;;4960235;28;20433;-71
2023/04/01 01:48:18;;;;;;;5.13;4.63;;;;;;;;;;4960259;28;20430;-72
2023/04/01 01:50:45;;;;;;;7.63;4.87;;;;;;;;;;4958400;28;20466;-71
2023/04/01 01:53:11;;;;;;;6.40;4.50;;;;;;;;;;4965062;28;20261;-72
2023/04/01 01:55:37;;;;;;;5.03;4.53;;;;;;;;;;4964486;28;20501;-72
2023/04/01 01:58:09;;;;;;;6.20;4.50;;;;;;;;;;4959417;28;20438;-72
2023/04/01 02:00:35;;;;;;;5.30;4.80;;;;;;;;;;4970167;28;20454;-71
2023/04/01 02:03:01;;;;;;;5.03;4.70;;;;;;;;;;4988140;28;20520;-71
2023/04/01 02:05:28;;;;;;;5.07;4.50;;;;;;;;;;4969911;28;20524;-71
2023/04/01 02:08:20;;;;;;;5.70;5.20;;;;;;;;;;4966521;28;20190;-72
2023/04/01 02:10:50;;;;;;;6.30;5.37;;;;;;;;;;4968240;28;20656;-72
2023/04/01 02:13:19;;;;;;;5.77;5.20;;;;;;;;;;4966249;28;20433;-71
2023/04/01 02:15:47;;;;;;;6.17;5.67;;;;;;;;;;4964738;28;20480;-71
2023/04/01 02:18:13;;;;;;;7.60;6.13;;;;;;;;;;4968479;28;20410;-71
2023/04/01 02:20:39;;;;;;;5.00;4.50;;;;;;;;;;4964687;28;20492;-72
2023/04/01 02:23:07;;;;;;;6.53;5.93;;;;;;;;;;4967081;28;20426;-71
2023/04/01 02:25:34;;;;;;;6.23;5.63;;;;;;;;;;4970063;28;20426;-71
2023/04/01 02:28:00;;;;;;;7.17;6.47;;;;;;;;;;4967306;28;20475;-71
2023/04/01 02:30:26;;;;;;;6.47;5.97;;;;;;;;;;4966902;28;20469;-72
2023/04/01 02:32:52;;;;;;;6.03;5.40;;;;;;;;;;4959811;28;20194;-71
2023/04/01 02:35:17;;;;;;;7.57;6.40;;;;;;;;;;4963399;28;20504;-72
2023/04/01 02:37:43;;;;;;;6.80;5.90;;;;;;;;;;4961152;28;20954;-71
2023/04/01 02:40:11;;;;;;;6.77;6.17;;;;;;;;;;4960657;28;20199;-72
2023/04/01 02:42:36;;;;;;;6.37;5.77;;;;;;;;;;4963484;28;20452;-71
2023/04/01 02:45:02;;;;;;;6.97;6.27;;;;;;;;;;4965726;28;20471;-71
2023/04/01 02:47:27;;;;;;;5.77;5.27;;;;;;;;;;4962718;28;20232;-71
2023/04/01 02:49:57;;;;;;;6.77;6.17;;;;;;;;;;4962282;28;20946;-71
2023/04/01 02:52:23;;;;;;;5.20;4.80;;;;;;;;;;4960007;28;20215;-72
2023/04/01 02:54:48;;;;;;;6.30;5.70;;;;;;;;;;4964516;28;20897;-72
2023/04/01 02:57:14;;;;;;;5.63;5.23;;;;;;;;;;4963889;28;20468;-71
2023/04/01 02:59:40;;;;;;;6.10;5.60;;;;;;;;;;4964941;28;20802;-71
2023/04/01 03:02:06;;;;;;;6.03;5.60;;;;;;;;;;4962532;28;20183;-71
2023/04/01 03:04:31;;;;;;;6.07;5.57;;;;;;;;;;4960582;28;20286;-71
2023/04/01 03:06:56;;;;;;;6.23;5.73;;;;;;;;;;4959121;28;20521;-72
2023/04/01 03:09:22;;;;;;;5.90;5.40;;;;;;;;;;4961305;28;20206;-71
2023/04/01 03:11:47;;;;;;;6.63;6.13;;;;;;;;;;4961049;28;20606;-71
2023/04/01 03:14:12;;;;;;;6.00;5.50;;;;;;;;;;4961714;28;20252;-71
2023/04/01 03:16:37;;;;;;;6.40;5.87;;;;;;;;;;4965309;28;20193;-71
2023/04/01 03:19:03;;;;;;;5.87;5.47;;;;;;;;;;4963432;28;20218;-71
2023/04/01 03:21:28;;;;;;;7.63;6.10;;;;;;;;;;4963390;28;20185;-71
2023/04/01 03:23:53;;;;;;;6.13;5.63;;;;;;;;;;4966300;28;20232;-71
2023/04/01 03:26:19;;;;;;;6.10;5.60;;;;;;;;;;4960467;28;20194;-69
2023/04/01 03:28:44;;;;;;;6.40;5.90;;;;;;;;;;4959014;28;20682;-71
2023/04/01 03:31:10;;;;;;;6.50;6.00;;;;;;;;;;4965970;28;20647;-71
2023/04/01 03:33:35;;;;;;;6.80;6.17;;;;;;;;;;4968721;28;20194;-71
2023/04/01 03:36:00;;;;;;;6.03;5.53;;;;;;;;;;4968682;28;20184;-72
2023/04/01 03:38:25;;;;;;;7.07;6.40;;;;;;;;;;4967175;28;21095;-72
2023/04/01 03:40:51;;;;;;;7.47;6.87;;;;;;;;;;4966394;28;20213;-71
2023/04/01 03:43:16;;;;;;;7.83;7.13;;;;;;;;;;4967668;28;20711;-73
2023/04/01 03:45:45;;;;;;;8.57;7.67;;;;;;;;;;5022588;23;20235;-73
2023/04/01 03:48:10;;;;;;;9.23;8.37;;;;;;;;;;4944696;28;20280;-74
2023/04/01 03:50:35;;;;;;;8.30;7.60;;;;;;;;;;4946811;28;20735;-73
2023/04/01 03:53:01;;;;;;;8.40;7.70;;;;;;;;;;4946646;28;20186;-73
2023/04/01 03:55:26;;;;;;;9.63;8.83;;;;;;;;;;4959088;28;20207;-74
2023/04/01 03:57:51;;;;;;;9.77;8.87;;;;;;;;;;4949022;28;20993;-73
2023/04/01 04:00:17;;;;;;;9.70;8.90;;;;;;;;;;4949007;28;20202;-73
2023/04/01 04:02:42;;;;;;;9.00;8.30;;;;;;;;;;4950977;28;20179;-74
2023/04/01 04:05:07;;;;;;;8.80;8.10;;;;;;;;;;4946590;28;20215;-73
2023/04/01 04:07:34;;;;;;;9.67;8.70;;;;;;;;;;4948807;28;20203;-74
2023/04/01 04:09:59;;;;;;;9.60;8.80;;;;;;;;;;4953814;28;20504;-74
2023/04/01 04:12:25;;;;;;;10.87;9.73;;;;;;;;;;4951874;28;20186;-73
2023/04/01 04:14:50;;;;;;;9.97;9.10;;;;;;;;;;4946344;28;20218;-73
2023/04/01 04:17:16;;;;;;;10.43;9.33;;;;;;;;;;4948556;28;20595;-74
2023/04/01 04:19:41;;;;;;;10.70;9.80;;;;;;;;;;4946795;28;20186;-74
2023/04/01 04:22:07;;;;;;;9.40;8.50;;;;;;;;;;4950727;28;20187;-74
2023/04/01 04:24:33;;;;;;;9.67;8.77;;;;;;;;;;4946118;28;20210;-73
2023/04/01 04:26:59;;;;;;;10.47;9.57;;;;;;;;;;4949458;28;20195;-74
2023/04/01 04:29:24;;;;;;;10.43;9.53;;;;;;;;;;4950873;28;20459;-73
2023/04/01 04:31:49;;;;;;;10.13;9.20;;;;;;;;;;4947833;28;20699;-73
2023/04/01 04:34:14;;;;;;;11.20;10.30;;;;;;;;;;4947225;28;20760;-73
2023/04/01 04:36:40;;;;;;;10.40;9.50;;;;;;;;;;4942664;28;20175;-74
2023/04/01 04:39:05;;;;;;;10.80;9.80;;;;;;;;;;4948533;28;20187;-74
2023/04/01 04:41:30;;;;;;;10.93;10.03;;;;;;;;;;4948864;28;20580;-74
2023/04/01 04:43:56;;;;;;;11.93;10.83;;;;;;;;;;4947762;28;20206;-73
2023/04/01 04:46:22;;;;;;;11.23;10.33;;;;;;;;;;4954848;28;20701;-74
2023/04/01 04:48:47;;;;;;;10.93;10.03;;;;;;;;;;4947759;28;20198;-74
2023/04/01 04:51:14;;;;;;;13.67;10.50;;;;;;;;;;4944084;28;20187;-73
2023/04/01 04:53:40;;;;;;;11.70;10.60;;;;;;;;;;4959699;28;20676;-73
2023/04/01 04:56:05;;;;;;;12.10;10.90;;;;;;;;;;4950954;28;20505;-73
2023/04/01 04:58:30;;;;;;;12.13;11.03;;;;;;;;;;4948644;28;20817;-73
2023/04/01 05:00:56;;;;;;;11.73;10.70;;;;;;;;;;4945118;28;20175;-74
2023/04/01 05:03:21;;;;;;;12.37;11.17;;;;;;;;;;4941149;28;20191;-74
2023/04/01 05:05:53;;;;;;;13.17;11.97;;;;;;;;;;4947886;28;20213;-73
2023/04/01 05:08:18;;;;;;;11.53;10.53;;;;;;;;;;4947232;28;20261;-74
2023/04/01 05:10:44;;;;;;;11.23;10.23;;;;;;;;;;4944694;28;20940;-74
2023/04/01 05:13:10;;;;;;;11.47;10.47;;;;;;;;;;4947860;28;20202;-74
2023/04/01 05:15:37;;;;;;;12.50;11.30;;;;;;;;;;4945951;28;21178;-74
2023/04/01 05:18:02;;;;;;;11.93;10.90;;;;;;;;;;4945734;28;20225;-74
2023/04/01 05:20:27;;;;;;;13.10;11.90;;;;;;;;;;4943917;28;20461;-73
2023/04/01 05:22:56;;;;;;;12.53;11.43;;;;;;;;;;4945555;28;20262;-73
2023/04/01 05:25:21;;;;;;;13.70;12.40;;;;;;;;;;4944739;28;20203;-74
2023/04/01 05:27:47;;;;;;;12.67;11.50;;;;;;;;;;4946944;28;20441;-74
2023/04/01 05:30:12;;;;;;;11.63;10.60;;;;;;;;;;4947646;28;20695;-74
2023/04/01 05:32:37;;;;;;;13.33;12.10;;;;;;;;;;4949893;28;20183;-74
2023/04/01 05:35:03;;;;;;;12.67;11.47;;;;;;;;;;4949914;28;20217;-74
2023/04/01 05:37:28;;;;;;;12.70;11.50;;;;;;;;;;4949584;28;20600;-74
2023/04/01 05:39:53;;;;;;;13.87;12.63;;;;;;;;;;4949597;28;20211;-74
2023/04/01 05:42:19;;;;;;;13.20;12.03;;;;;;;;;;4950093;28;20228;-73
2023/04/01 05:44:44;;;;;;;13.13;11.93;;;;;;;;;;4950455;28;20219;-74
2023/04/01 05:47:09;;;;;;;12.80;11.70;;;;;;;;;;4950989;28;20179;-74
2023/04/01 05:49:34;;;;;;;13.20;12.00;;;;;;;;;;4951956;28;20187;-74
2023/04/01 05:52:00;;;;;;;12.43;11.20;;;;;;;;;;4951120;28;20194;-74
2023/04/01 05:54:25;;;;;;;12.27;11.17;;;;;;;;;;4949726;28;20278;-74
2023/04/01 05:56:50;;;;;;;12.70;11.60;;;;;;;;;;4951817;28;20175;-74
2023/04/01 05:59:16;;;;;;;13.03;11.80;;;;;;;;;;4950800;28;20266;-72
2023/04/01 06:01:41;;;;;;;13.20;12.00;;;;;;;;;;4949322;28;20179;-74
2023/04/01 06:04:06;;;;;;;14.07;12.87;;;;;;;;;;4952938;28;20203;-74
2023/04/01 06:06:32;;;;;;;12.87;11.67;;;;;;;;;;4949551;28;20179;-74
2023/04/01 06:09:01;;;;;;;13.13;11.93;;;;;;;;;;4947063;28;20195;-74
2023/04/01 06:11:26;;;;;;;13.07;11.97;;;;;;;;;;4945708;28;20184;-73
2023/04/01 06:14:00;;;;;;;13.23;12.13;;;;;;;;;;4944976;28;20922;-74
2023/04/01 06:16:37;;;;;;;14.67;13.27;;;;;;;;;;4943442;28;20171;-74
2023/04/01 06:19:16;;;;;;;14.27;13.07;;;;;;;;;;4948229;28;20423;-74
2023/04/01 06:21:41;;;;;;;13.77;12.57;;;;;;;;;;4944978;28;20910;-74
2023/04/01 06:24:21;;;;;;;12.60;11.47;;;;;;;;;;4945400;28;20457;-74
2023/04/01 06:27:13;;;;;;;14.63;13.33;;;;;;;;;;4934063;28;20740;-75
2023/04/01 06:29:49;;;;;;;14.60;13.20;;;;;;;;;;4948958;28;20450;-74
2023/04/01 06:32:37;;;;;;;14.77;13.40;;;;;;;;;;4950180;28;20446;-74
2023/04/01 06:35:17;;;;;;;13.50;12.20;;;;;;;;;;4951628;28;20470;-74
2023/04/01 06:37:42;;;;;;;14.13;12.83;;;;;;;;;;4951519;28;20434;-74
2023/04/01 06:40:23;;;;;;;13.70;12.50;;;;;;;;;;4943620;28;20528;-74
2023/04/01 06:42:53;;;;;;;13.80;12.50;;;;;;;;;;4950192;28;20182;-74
2023/04/01 06:45:37;;;;;;;14.57;13.20;;;;;;;;;;4954086;28;20474;-74
2023/04/01 06:48:11;;;;;;;13.90;12.60;;;;;;;;;;4938632;28;20441;-74
2023/04/01 06:50:45;;;;;;;15.00;13.53;;;;;;;;;;4954891;28;20501;-74
2023/04/01 06:53:16;;;;;;;14.40;12.97;;;;;;;;;;4945859;28;20442;-74
2023/04/01 06:55:45;;;;;;;13.67;12.37;;;;;;;;;;4944449;28;20475;-74
2023/04/01 06:58:20;;;;;;;14.40;13.10;;;;;;;;;;4945738;28;20518;-74
2023/04/01 07:00:47;;;;;;;14.10;12.90;;;;;;;;;;4940067;28;21839;-74
2023/04/01 07:03:21;;;;;;;13.50;12.30;;;;;;;;;;4946150;28;20430;-74
2023/04/01 07:05:46;;;;;;;13.40;11.97;;;;;;;;;;4936875;28;20465;-74
2023/04/01 07:08:15;;;;;;;14.40;13.00;;;;;;;;;;4947845;28;20445;-74
2023/04/01 07:10:47;;;;;;;13.20;12.00;;;;;;;;;;4949295;28;20194;-74
2023/04/01 07:13:16;;;;;;;13.43;12.27;;;;;;;;;;4963624;28;20801;-74
2023/04/01 07:15:43;;;;;;;12.57;11.37;;;;;;;;;;4950656;28;21289;-74
2023/04/01 07:18:38;;;;;;;12.53;11.33;;;;;;;;;;4950907;28;20714;-74
2023/04/01 07:21:04;;;;;;;11.50;10.50;;;;;;;;;;4915450;28;20899;-74
2023/04/01 07:23:38;;;;;;;12.63;11.33;;;;;;;;;;4947214;28;20425;-74
2023/04/01 07:26:10;;;;;;;12.00;10.90;;;;;;;;;;4973579;28;20438;-74
2023/04/01 07:28:35;;;;;;;11.73;10.60;;;;;;;;;;4947878;28;20423;-74
2023/04/01 07:31:12;;;;;;;10.70;9.70;;;;;;;;;;4946995;28;20419;-74
2023/04/01 07:33:43;;;;;;;12.13;10.97;;;;;;;;;;4941607;28;20194;-74
2023/04/01 07:36:22;;;;;;;10.37;9.43;;;;;;;;;;4950370;28;20522;-74
2023/04/01 07:38:53;;;;;;;9.13;8.33;;;;;;;;;;4947380;28;20462;-74
2023/04/01 07:41:18;;;;;;;9.93;8.30;;;;;;;;;;4950804;28;20460;-73
2023/04/01 07:44:13;;;;;;;10.73;9.83;;;;;;;;;;4947311;28;20785;-74
2023/04/01 07:46:44;;;;;;;9.23;8.43;;;;;;;;;;4980754;28;20595;-73
2023/04/01 07:49:15;;;;;;;9.17;8.30;;;;;;;;;;4950796;28;20427;-74
2023/04/01 07:51:48;;;;;;;9.83;8.83;;;;;;;;;;4951262;28;20446;-74
2023/04/01 07:54:27;;;;;;;9.63;8.80;;;;;;;;;;4948513;28;21002;-74
2023/04/01 07:57:12;;;;;;;9.90;9.00;;;;;;;;;;4947807;28;20429;-74
2023/04/01 07:59:56;;;;;;;8.67;7.90;;;;;;;;;;4950974;28;20461;-75
2023/04/01 08:02:41;;;;;;;9.97;8.97;;;;;;;;;;4949235;28;20509;-74
2023/04/01 08:05:27;;;;;;;8.00;7.20;;;;;;;;;;4946685;28;20450;-74
2023/04/01 08:07:58;;;;;;;6.40;5.13;;;;;;;;;;4956662;28;20561;-74
2023/04/01 08:10:39;;;;;;;6.23;4.57;;;;;;;;;;4950926;28;20403;-74
2023/04/01 08:13:31;;;;;;;3.80;3.40;;;;;;;;;;4947939;28;20676;-74
2023/04/01 08:16:02;;;;;;;2.80;2.50;;;;;;;;;;4969490;28;20482;-75
2023/04/01 08:18:33;;;;;;;2.50;2.30;;;;;;;;;;4945029;28;21335;-74
2023/04/01 08:21:00;;;;;;;3.40;2.23;;;;;;;;;;4942614;28;20476;-74
2023/04/01 08:23:27;;;;;;;2.37;2.10;;;;;;;;;;4953522;28;20435;-72
2023/04/01 08:26:13;;;;;;;2.33;2.13;;;;;;;;;;4951270;28;20534;-74
2023/04/01 08:28:50;;;;;;;1.80;1.60;;;;;;;;;;4956693;28;20492;-74
2023/04/01 08:31:19;;;;;;;1.77;1.53;;;;;;;;;;4949076;28;20439;-74
2023/04/01 08:33:46;;;;;;;1.70;1.27;;;;;;;;;;4936941;28;22999;-74
2023/04/01 08:36:20;;;;;;;1.30;1.10;;;;;;;;;;4939577;28;20460;-74
2023/04/01 08:38:54;;;;;;;1.73;1.20;;;;;;;;;;4941261;28;20517;-74
2023/04/01 08:41:38;;;;;;;1.20;1.10;;;;;;;;;;4934907;28;20443;-74
2023/04/01 08:44:06;;;;;;;1.50;1.10;;;;;;;;;;4940631;28;20607;-74
2023/04/01 08:46:50;;;;;;;1.30;0.97;;;;;;;;;;4937507;28;20447;-74
2023/04/01 08:49:33;;;;;;;1.13;0.90;;;;;;;;;;4938667;28;20464;-74
2023/04/01 08:52:15;;;;;;;1.17;1.00;;;;;;;;;;4940903;28;20580;-75
2023/04/01 08:54:40;;;;;;;1.07;0.97;;;;;;;;;;4940364;28;20501;-75
2023/04/01 08:57:12;;;;;;;1.73;1.10;;;;;;;;;;4944094;28;20445;-74
2023/04/01 08:59:44;;;;;;;2.70;1.07;;;;;;;;;;4946766;28;20183;-74
2023/04/01 09:02:18;;;;;;;1.47;1.23;;;;;;;;;;4941777;28;20470;-74
2023/04/01 09:04:52;;;;;;;1.97;1.20;;;;;;;;;;4946803;28;20493;-74
2023/04/01 09:07:47;;;;;;;2.90;1.10;;;;;;;;;;4946054;28;20465;-74
2023/04/01 09:10:20;;;;;;;1.00;0.80;;;;;;;;;;5001018;28;20447;-74
2023/04/01 09:13:01;;;;;;;1.70;1.00;;;;;;;;;;4950808;28;20429;-74
2023/04/01 09:15:47;;;;;;;5.53;1.30;;;;;;;;;;4952150;28;20478;-74
2023/04/01 09:18:18;;;;;;;1.73;0.90;;;;;;;;;;4949058;28;20525;-74
2023/04/01 09:20:46;;;;;;;1.20;0.83;;;;;;;;;;4948585;28;20469;-74
2023/04/01 09:23:12;;;;;;;0.90;0.70;;;;;;;;;;4942974;28;20438;-75
2023/04/01 09:25:52;;;;;;;0.90;0.70;;;;;;;;;;4956095;28;20973;-75
2023/04/01 09:28:24;;;;;;;1.43;0.80;;;;;;;;;;4948680;28;21167;-76
2023/04/01 09:31:08;;;;;;;1.63;0.90;;;;;;;;;;4955686;28;20448;-75
2023/04/01 09:33:52;;;;;;;0.80;0.60;;;;;;;;;;4951008;28;20911;-75
2023/04/01 09:36:17;;;;;;;1.27;0.70;;;;;;;;;;4951674;28;20449;-75
2023/04/01 09:38:52;;;;;;;1.10;0.80;;;;;;;;;;4952602;28;20439;-75
2023/04/01 09:41:17;;;;;;;2.70;1.10;;;;;;;;;;4964694;28;20206;-74
2023/04/01 09:43:48;;;;;;;1.87;0.90;;;;;;;;;;4952472;28;20427;-74
2023/04/01 09:46:18;;;;;;;1.00;0.70;;;;;;;;;;4950475;28;20434;-74
2023/04/01 09:48:47;;;;;;;1.20;0.80;;;;;;;;;;4951490;28;20458;-74
2023/04/01 09:51:31;;;;;;;1.20;0.90;;;;;;;;;;4955838;28;21087;-74
2023/04/01 09:54:05;;;;;;;1.23;0.80;;;;;;;;;;4949777;28;20482;-75
2023/04/01 09:56:30;;;;;;;1.23;1.10;;;;;;;;;;4947983;28;20424;-75
2023/04/01 09:59:20;;;;;;;1.27;0.90;;;;;;;;;;4964806;23;22911;-73
2023/04/01 10:01:45;;;;;;;1.77;1.37;;;;;;;;;;4965458;28;20646;-73
2023/04/01 10:04:16;;;;;;;1.40;0.80;;;;;;;;;;4965229;28;20458;-73
2023/04/01 10:06:41;;;;;;;1.73;1.07;;;;;;;;;;4963084;28;20183;-73
2023/04/01 10:09:12;;;;;;;1.40;0.73;;;;;;;;;;4963729;28;20504;-73
2023/04/01 10:11:38;;;;;;;1.50;0.93;;;;;;;;;;4954603;28;20674;-71
2023/04/01 10:14:22;;;;;;;1.37;1.03;;;;;;;;;;4957778;28;20465;-71
2023/04/01 10:16:59;;;;;;;2.50;1.40;;;;;;;;;;4958596;28;20190;-71
2023/04/01 10:19:43;;;;;;;1.57;1.17;;;;;;;;;;4956457;28;20442;-71
2023/04/01 10:22:11;;;;;;;1.23;0.90;;;;;;;;;;4959191;28;20480;-71
2023/04/01 10:24:55;;;;;;;1.00;0.90;;;;;;;;;;4955026;28;20427;-71
2023/04/01 10:27:38;;;;;;;1.73;1.00;;;;;;;;;;4954873;28;20430;-73
2023/04/01 10:30:22;;;;;;;1.93;1.00;;;;;;;;;;4957838;28;20474;-73
2023/04/01 10:32:56;;;;;;;1.17;0.70;;;;;;;;;;4953354;28;20794;-73
2023/04/01 10:35:27;;;;;;;1.90;1.17;;;;;;;;;;4970851;28;20502;-73
2023/04/01 10:37:53;;;;;;;1.47;1.00;;;;;;;;;;4957691;28;20429;-73
2023/04/01 10:40:25;;;;;;;1.63;0.87;;;;;;;;;;4956095;28;20430;-72
2023/04/01 10:43:06;;;;;;;1.23;0.73;;;;;;;;;;4956628;28;20640;-73
2023/04/01 10:45:50;;;;;;;1.30;1.00;;;;;;;;;;4956390;28;20809;-72
2023/04/01 10:48:15;;;;;;;1.93;0.77;;;;;;;;;;4956083;28;20415;-72
2023/04/01 10:50:49;;;;;;;1.00;0.80;;;;;;;;;;4953520;28;21021;-72
2023/04/01 10:53:24;;;;;;;1.73;0.70;;;;;;;;;;4954445;28;20210;-72
2023/04/01 10:56:08;;;;;;;1.37;1.00;;;;;;;;;;4952224;28;20458;-71
2023/04/01 10:58:52;;;;;;;2.60;0.80;;;;;;;;;;4952694;28;20820;-71
2023/04/01 11:01:27;;;;;;;1.60;0.90;;;;;;;;;;4956249;28;20437;-71
2023/04/01 11:04:25;;;;;;;1.90;0.97;;;;;;;;;;4956643;28;20841;-71
2023/04/01 11:07:09;;;;;;;3.23;1.03;;;;;;;;;;4958671;28;20569;-71
2023/04/01 11:09:53;;;;;;;1.00;0.60;;;;;;;;;;4944436;28;20519;-71
2023/04/01 11:12:24;;;;;;;1.00;0.90;;;;;;;;;;4945986;28;20927;-72
2023/04/01 11:15:04;;;;;;;1.07;0.80;;;;;;;;;;4942099;28;20823;-71
2023/04/01 11:17:30;;;;;;;1.37;0.90;;;;;;;;;;4953313;28;20431;-70
2023/04/01 11:20:13;;;;;;;1.10;0.90;;;;;;;;;;4942565;28;20971;-71
2023/04/01 11:22:44;;;;;;;1.23;0.90;;;;;;;;;;4959153;28;20229;-72
2023/04/01 11:25:16;;;;;;;1.87;0.80;;;;;;;;;;4945965;28;20521;-70
2023/04/01 11:27:44;;;;;;;1.30;0.80;;;;;;;;;;4952348;28;20796;-70
2023/04/01 11:30:17;;;;;;;1.73;0.80;;;;;;;;;;4956292;28;20512;-70
2023/04/01 11:33:00;;;;;;;1.27;1.10;;;;;;;;;;4955554;28;20469;-70
2023/04/01 11:35:26;;;;;;;1.73;0.87;;;;;;;;;;4952076;28;20808;-70
2023/04/01 11:37:54;;;;;;;2.10;0.73;;;;;;;;;;4940077;28;20462;-69
2023/04/01 11:40:23;;;;;;;1.67;1.00;;;;;;;;;;4954558;28;20203;-70
2023/04/01 11:42:51;;;;;;;0.90;0.70;;;;;;;;;;4951383;28;20843;-71
2023/04/01 11:45:23;;;;;;;1.27;0.83;;;;;;;;;;4959759;28;20519;-71
2023/04/01 11:47:56;;;;;;;1.20;0.70;;;;;;;;;;4943069;28;20533;-70
2023/04/01 11:50:40;;;;;;;1.33;0.80;;;;;;;;;;4943547;28;20454;-69
2023/04/01 11:53:06;;;;;;;1.10;0.80;;;;;;;;;;4953240;28;20470;-69
2023/04/01 11:55:35;;;;;;;1.77;0.80;;;;;;;;;;4934112;28;20583;-70
2023/04/01 11:58:15;;;;;;;0.80;0.70;;;;;;;;;;4945671;28;20189;-69
2023/04/01 12:00:59;;;;;;;0.80;0.70;;;;;;;;;;4950824;28;20469;-69
2023/04/01 12:03:30;;;;;;;2.80;0.87;;;;;;;;;;4948593;28;20489;-70
2023/04/01 12:05:55;;;;;;;1.20;0.90;;;;;;;;;;4941776;28;20498;-71
2023/04/01 12:08:41;;;;;;;1.63;1.10;;;;;;;;;;4943103;28;20445;-71
2023/04/01 12:11:20;;;;;;;1.00;0.80;;;;;;;;;;4946315;28;20209;-70
2023/04/01 12:13:48;;;;;;;1.60;1.00;;;;;;;;;;4944918;28;20439;-70
2023/04/01 12:16:20;;;;;;;1.30;0.93;;;;;;;;;;4947713;28;20881;-70
2023/04/01 12:19:04;;;;;;;1.17;0.93;;;;;;;;;;4951693;28;20433;-71
2023/04/01 12:21:30;;;;;;;1.80;1.33;;;;;;;;;;4947105;28;20447;-71
2023/04/01 12:24:14;;;;;;;1.53;1.00;;;;;;;;;;4946763;28;20435;-70
2023/04/01 12:26:54;;;;;;;3.27;0.80;;;;;;;;;;4951204;28;20197;-70
2023/04/01 12:29:20;;;;;;;1.17;0.80;;;;;;;;;;4944097;28;20538;-70
2023/04/01 12:32:04;;;;;;;1.33;1.00;;;;;;;;;;4952735;28;20466;-71
2023/04/01 12:34:32;;;;;;;1.23;0.90;;;;;;;;;;4960369;28;20215;-69
2023/04/01 12:36:57;;;;;;;1.43;0.90;;;;;;;;;;4947721;28;20438;-69
2023/04/01 12:39:31;;;;;;;1.40;0.90;;;;;;;;;;4950216;28;20458;-70
2023/04/01 12:42:07;;;;;;;1.67;0.77;;;;;;;;;;4936436;28;20184;-70
2023/04/01 12:44:49;;;;;;;1.30;1.00;;;;;;;;;;4943935;28;20441;-72
2023/04/01 12:47:33;;;;;;;1.63;0.80;;;;;;;;;;4944854;28;20496;-70
2023/04/01 12:50:01;;;;;;;1.13;0.73;;;;;;;;;;4943980;28;20463;-70
2023/04/01 12:52:26;;;;;;;1.10;0.63;;;;;;;;;;4948670;28;20812;-70
2023/04/01 12:54:51;;;;;;;1.00;0.70;;;;;;;;;;4948389;28;20462;-70
2023/04/01 12:57:25;;;;;;;0.90;0.60;;;;;;;;;;4948121;28;20531;-69
2023/04/01 12:59:52;;;;;;;1.10;1.00;;;;;;;;;;4946180;28;20222;-69
2023/04/01 13:02:35;;;;;;;1.10;0.70;;;;;;;;;;4949391;28;20513;-70
2023/04/01 13:05:16;;;;;;;1.00;0.80;;;;;;;;;;4952304;28;20442;-70
2023/04/01 13:07:47;;;;;;;0.97;0.70;;;;;;;;;;4950992;28;20578;-69
2023/04/01 13:10:15;;;;;;;1.10;0.80;;;;;;;;;;4950888;28;20459;-70
2023/04/01 13:12:40;;;;;;;1.10;0.80;;;;;;;;;;4951138;28;20766;-69
2023/04/01 13:15:17;;;;;;;1.00;0.80;;;;;;;;;;4949512;28;20475;-70
2023/04/01 13:17:49;;;;;;;1.57;0.80;;;;;;;;;;4955115;28;20453;-70
2023/04/01 13:20:20;;;;;;;1.20;0.70;;;;;;;;;;4947275;28;20477;-70
2023/04/01 13:22:51;;;;;;;1.00;0.60;;;;;;;;;;4945873;28;20429;-70
2023/04/01 13:25:35;;;;;;;1.13;0.70;;;;;;;;;;4948307;28;20940;-70
2023/04/01 13:28:21;;;;;;;1.10;0.70;;;;;;;;;;4940935;28;20442;-72
2023/04/01 13:31:01;;;;;;;2.17;0.60;;;;;;;;;;4949339;28;20623;-72
2023/04/01 13:33:32;;;;;;;0.80;0.60;;;;;;;;;;4946616;28;20448;-72
2023/04/01 13:36:15;;;;;;;2.20;0.80;;;;;;;;;;4950625;28;20476;-72
2023/04/01 13:38:49;;;;;;;2.20;1.17;;;;;;;;;;4947501;28;20426;-70
2023/04/01 13:41:15;;;;;;;1.23;1.00;;;;;;;;;;4949972;28;20457;-71
2023/04/01 13:43:52;;;;;;;2.10;1.40;;;;;;;;;;4945251;28;20441;-70
2023/04/01 13:46:36;;;;;;;1.37;0.70;;;;;;;;;;4953210;28;20198;-71
2023/04/01 13:49:02;;;;;;;1.00;0.80;;;;;;;;;;4946605;28;20840;-70
2023/04/01 13:51:46;;;;;;;1.13;0.90;;;;;;;;;;4947642;28;20434;-71
2023/04/01 13:54:17;;;;;;;4.30;0.90;;;;;;;;;;4953942;28;20186;-71
2023/04/01 13:56:48;;;;;;;1.80;1.17;;;;;;;;;;4955672;28;20432;-72
2023/04/01 13:59:32;;;;;;;2.60;1.00;;;;;;;;;;4953133;28;20464;-71
2023/04/01 14:02:17;;;;;;;1.83;0.77;;;;;;;;;;4948346;28;20427;-71
2023/04/01 14:05:02;;;;;;;1.10;0.90;;;;;;;;;;4960916;28;20443;-71
2023/04/01 14:07:27;;;;;;;1.10;0.70;;;;;;;;;;4956632;28;21044;-71
2023/04/01 14:10:28;;;;;;;1.80;0.70;;;;;;;;;;4952105;28;20545;-71
2023/04/01 14:13:11;;;;;;;1.33;0.70;;;;;;;;;;4981165;28;20269;-71
2023/04/01 14:16:06;;;;;;;2.80;0.90;;;;;;;;;;4953406;28;20477;-70
2023/04/01 14:19:03;;;;;;;1.87;1.13;;;;;;;;;;4958336;28;20971;-72
2023/04/01 14:21:44;;;;;;;1.83;0.93;;;;;;;;;;4963689;28;20774;-70
2023/04/01 14:24:09;;;;;;;3.37;1.60;;;;;;;;;;4958085;28;20958;-70
2023/04/01 14:26:37;;;;;;;1.97;1.43;;;;;;;;;;4958213;28;20453;-70
2023/04/01 14:29:09;;;;;;;5.47;1.67;;;;;;;;;;4956343;28;20260;-70
2023/04/01 14:31:49;;;;;;;4.37;1.80;;;;;;;;;;4958040;28;20431;-70
2023/04/01 14:34:15;;;;;;;7.10;1.50;;;;;;;;;;4956840;28;20466;-70
2023/04/01 14:36:50;;;;;;;2.70;1.87;;;;;;;;;;4960565;28;20441;-71
2023/04/01 14:39:43;;;;;;;2.67;1.40;;;;;;;;;;4956827;28;20206;-71
2023/04/01 14:42:23;;;;;;;2.30;1.60;;;;;;;;;;4955962;28;20464;-71
2023/04/01 14:44:57;;;;;;;4.20;2.00;;;;;;;;;;4955149;28;20499;-71
2023/04/01 14:47:36;;;;;;;3.50;2.00;;;;;;;;;;4954184;28;20422;-71
2023/04/01 14:50:13;;;;;;;2.73;1.70;;;;;;;;;;4955552;28;20441;-71
2023/04/01 14:52:40;;;;;;;2.33;1.50;;;;;;;;;;4959003;28;20427;-71
2023/04/01 14:55:26;;;;;;;5.40;1.80;;;;;;;;;;4954269;28;20471;-71
2023/04/01 14:57:59;;;;;;;2.20;1.50;;;;;;;;;;4956190;28;20426;-71
2023/04/01 15:00:25;;;;;;;4.80;2.17;;;;;;;;;;4952253;28;20486;-72
2023/04/01 15:02:53;;;;;;;2.13;1.40;;;;;;;;;;4938622;28;21125;-71
2023/04/01 15:05:21;;;;;;;3.73;2.27;;;;;;;;;;4942993;28;20202;-72